Toyomasa Maru — JJ3927 — position and weather

sailwx.info

Track history (hours):
 
Tides and Currents Weather Stations Pressure Air Temp Water Temp Dewpoint Dewpoint Depression Visibility Wind Speed Wind Dir Waves Ship Positions

Toyomasa Maru

Last reported at 2014-Oct-22 07:25 UTC. Time now 2014-Oct-23 04:29 UTC.
Position N 34°08' E 132°21'.

Length 101 m; draft 4.3 m.

Type: Tanker. MMSI: 431300401.

Date/timePositionNaut miles runAvg speedWind from/ knotsBaromVisibWave heightAir tempDewpointWater temp
2014-Oct-22 07:25N 34°08' E 132°21'7 0.8
2014-Oct-21 23:23N 34°12' E 132°15'4 4.8
2014-Oct-21 22:33N 34°10' E 132°19'0 0.2
2014-Oct-21 21:32N 34°10' E 132°19'0 0.0
2014-Oct-21 20:23N 34°10' E 132°19'0 0.0
2014-Oct-21 19:32N 34°10' E 132°19'0 0.1
2014-Oct-21 18:32N 34°10' E 132°19'0 0.0
2014-Oct-21 17:29N 34°10' E 132°19'3 2.7
2014-Oct-21 16:33N 34°08' E 132°21'1311.4
2014-Oct-21 15:27N 34°03' E 132°35'11913.2
2014-Oct-21 06:25N 34°36' E 134°54'1011.5
2014-Oct-21 05:33N 34°36' E 135°06'3 2.6
2014-Oct-21 04:30N 34°39' E 135°08'0 0.0
2014-Oct-21 03:30N 34°39' E 135°08'0 0.0
2014-Oct-21 02:30N 34°39' E 135°08'0 0.0
2014-Oct-21 01:30N 34°39' E 135°08'0 0.0
2014-Oct-21 00:24N 34°39' E 135°08'0 0.6
2014-Oct-20 23:34N 34°38' E 135°08'1 0.5
2014-Oct-20 22:22N 34°38' E 135°08'2 2.0
2014-Oct-20 21:33N 34°36' E 135°08'1412.4
2014-Oct-20 20:27N 34°23' E 135°02'1213.2
2014-Oct-20 19:33N 34°12' E 134°59'  
2014-Oct-16 14:33N 34°12' E 134°59'1212.2
2014-Oct-16 13:33N 34°24' E 135°04'1313.1
2014-Oct-16 12:33N 34°31' E 135°17'6 6.1
2014-Oct-16 11:33N 34°32' E 135°25'0 0.0
2014-Oct-16 10:33N 34°32' E 135°25'0 0.0
2014-Oct-16 09:33N 34°32' E 135°25'0 0.0
2014-Oct-16 08:33N 34°32' E 135°25'0 0.0
2014-Oct-16 07:33N 34°32' E 135°25'0 0.0
2014-Oct-16 00:29N 34°32' E 135°24'5 5.5
2014-Oct-15 23:29N 34°32' E 135°18'0 0.0
2014-Oct-15 22:17N 34°32' E 135°18'0 0.0
2014-Oct-15 21:29N 34°32' E 135°18'0 0.0
2014-Oct-15 20:29N 34°32' E 135°18'0 0.0
2014-Oct-15 19:23N 34°32' E 135°18'0 0.0
2014-Oct-15 18:29N 34°32' E 135°18'0 0.0
2014-Oct-15 17:29N 34°32' E 135°18'0 0.0
2014-Oct-15 16:29N 34°32' E 135°18'0 0.0
2014-Oct-15 15:23N 34°32' E 135°18'0 0.0
2014-Oct-15 14:23N 34°32' E 135°18'0 0.0
2014-Oct-15 13:29N 34°32' E 135°18'0 0.0
2014-Oct-15 12:29N 34°32' E 135°18'0 0.0
2014-Oct-15 11:29N 34°32' E 135°18'0 0.0
2014-Oct-15 10:29N 34°32' E 135°18'4 4.8
2014-Oct-15 09:33N 34°35' E 135°14'5 1.8
2014-Oct-15 06:27N 34°39' E 135°08'0 0.0
2014-Oct-15 05:03N 34°39' E 135°08'0 0.0
2014-Oct-15 04:33N 34°39' E 135°08'1 0.8
2014-Oct-15 03:33N 34°38' E 135°08'0 0.1
2014-Oct-15 02:30N 34°38' E 135°08'0 0.0
2014-Oct-15 01:30N 34°38' E 135°08'4 3.9
2014-Oct-15 00:33N 34°34' E 135°06'1312.5
2014-Oct-14 23:32N 34°22' E 135°01'1111.6
2014-Oct-14 22:33N 34°11' E 134°59'  
Track history (hours):
 
Tides and Currents Weather Stations Pressure Air Temp Water Temp Dewpoint Dewpoint Depression Visibility Wind Speed Wind Dir Waves Ship Positions

Toyomasa Maru

Last reported at 2014-Oct-22 07:25 UTC. Time now 2014-Oct-23 04:29 UTC.
Position N 34°08' E 132°21'.

Length 101 m; draft 4.3 m.

Type: Tanker. MMSI: 431300401.

Date/timePositionNaut miles runAvg speedWind from/ knotsBaromVisibWave heightAir tempDewpointWater temp
2014-Oct-22 07:25N 34°08' E 132°21'7 0.8
2014-Oct-21 23:23N 34°12' E 132°15'4 4.8
2014-Oct-21 22:33N 34°10' E 132°19'0 0.2
2014-Oct-21 21:32N 34°10' E 132°19'0 0.0
2014-Oct-21 20:23N 34°10' E 132°19'0 0.0
2014-Oct-21 19:32N 34°10' E 132°19'0 0.1
2014-Oct-21 18:32N 34°10' E 132°19'0 0.0
2014-Oct-21 17:29N 34°10' E 132°19'3 2.7
2014-Oct-21 16:33N 34°08' E 132°21'1311.4
2014-Oct-21 15:27N 34°03' E 132°35'11913.2
2014-Oct-21 06:25N 34°36' E 134°54'1011.5
2014-Oct-21 05:33N 34°36' E 135°06'3 2.6
2014-Oct-21 04:30N 34°39' E 135°08'0 0.0
2014-Oct-21 03:30N 34°39' E 135°08'0 0.0
2014-Oct-21 02:30N 34°39' E 135°08'0 0.0
2014-Oct-21 01:30N 34°39' E 135°08'0 0.0
2014-Oct-21 00:24N 34°39' E 135°08'0 0.6
2014-Oct-20 23:34N 34°38' E 135°08'1 0.5
2014-Oct-20 22:22N 34°38' E 135°08'2 2.0
2014-Oct-20 21:33N 34°36' E 135°08'1412.4
2014-Oct-20 20:27N 34°23' E 135°02'1213.2
2014-Oct-20 19:33N 34°12' E 134°59'  
2014-Oct-16 14:33N 34°12' E 134°59'1212.2
2014-Oct-16 13:33N 34°24' E 135°04'1313.1
2014-Oct-16 12:33N 34°31' E 135°17'6 6.1
2014-Oct-16 11:33N 34°32' E 135°25'0 0.0
2014-Oct-16 10:33N 34°32' E 135°25'0 0.0
2014-Oct-16 09:33N 34°32' E 135°25'0 0.0
2014-Oct-16 08:33N 34°32' E 135°25'0 0.0
2014-Oct-16 07:33N 34°32' E 135°25'0 0.0
2014-Oct-16 00:29N 34°32' E 135°24'5 5.5
2014-Oct-15 23:29N 34°32' E 135°18'0 0.0
2014-Oct-15 22:17N 34°32' E 135°18'0 0.0
2014-Oct-15 21:29N 34°32' E 135°18'0 0.0
2014-Oct-15 20:29N 34°32' E 135°18'0 0.0
2014-Oct-15 19:23N 34°32' E 135°18'0 0.0
2014-Oct-15 18:29N 34°32' E 135°18'0 0.0
2014-Oct-15 17:29N 34°32' E 135°18'0 0.0
2014-Oct-15 16:29N 34°32' E 135°18'0 0.0
2014-Oct-15 15:23N 34°32' E 135°18'0 0.0
2014-Oct-15 14:23N 34°32' E 135°18'0 0.0
2014-Oct-15 13:29N 34°32' E 135°18'0 0.0
2014-Oct-15 12:29N 34°32' E 135°18'0 0.0
2014-Oct-15 11:29N 34°32' E 135°18'0 0.0
2014-Oct-15 10:29N 34°32' E 135°18'4 4.8
2014-Oct-15 09:33N 34°35' E 135°14'5 1.8
2014-Oct-15 06:27N 34°39' E 135°08'0 0.0
2014-Oct-15 05:03N 34°39' E 135°08'0 0.0
2014-Oct-15 04:33N 34°39' E 135°08'1 0.8
2014-Oct-15 03:33N 34°38' E 135°08'0 0.1
2014-Oct-15 02:30N 34°38' E 135°08'0 0.0
2014-Oct-15 01:30N 34°38' E 135°08'4 3.9
2014-Oct-15 00:33N 34°34' E 135°06'1312.5
2014-Oct-14 23:32N 34°22' E 135°01'1111.6
2014-Oct-14 22:33N 34°11' E 134°59'  

Dump ship's entire track history